createdAt,value
2018-03-01T00:00:23.765Z,-8.27
2018-03-01T00:02:52.141Z,-8.23
2018-03-01T00:05:20.518Z,-8.24
2018-03-01T00:07:48.862Z,-8.13
2018-03-01T00:10:17.278Z,-8.18
2018-03-01T00:12:45.634Z,-8.18
2018-03-01T00:15:13.955Z,-8.21
2018-03-01T00:17:42.406Z,-8.25
2018-03-01T00:20:10.791Z,-8.21
2018-03-01T00:22:39.136Z,-8.30
2018-03-01T00:25:07.460Z,-8.33
2018-03-01T00:27:35.807Z,-8.31
2018-03-01T00:30:04.129Z,-8.31
2018-03-01T00:32:32.485Z,-8.32
2018-03-01T00:35:00.842Z,-8.35
2018-03-01T00:37:29.221Z,-8.35
2018-03-01T00:39:57.565Z,-8.32
2018-03-01T00:42:25.962Z,-8.40
2018-03-01T00:44:54.310Z,-8.39
2018-03-01T00:47:22.735Z,-8.44
2018-03-01T00:49:51.070Z,-8.34
2018-03-01T00:52:19.397Z,-8.32
2018-03-01T00:54:47.763Z,-8.37
2018-03-01T00:57:16.086Z,-8.42
2018-03-01T00:59:44.442Z,-8.36
2018-03-01T01:02:12.762Z,-8.27
2018-03-01T01:04:41.108Z,-8.29
2018-03-01T01:07:09.435Z,-8.35
2018-03-01T01:09:37.814Z,-8.28
2018-03-01T01:12:06.138Z,-8.29
2018-03-01T01:14:34.570Z,-8.28
2018-03-01T01:17:02.895Z,-8.35
2018-03-01T01:19:31.241Z,-8.36
2018-03-01T01:21:59.598Z,-8.28
2018-03-01T01:24:27.942Z,-8.32
2018-03-01T01:26:56.266Z,-8.31
2018-03-01T01:29:24.633Z,-8.32
2018-03-01T01:31:52.958Z,-8.32
2018-03-01T01:34:21.298Z,-8.32
2018-03-01T01:36:49.662Z,-8.28
2018-03-01T01:39:18.014Z,-8.22
2018-03-01T01:41:46.415Z,-8.29
2018-03-01T01:44:14.766Z,-8.27
2018-03-01T01:46:43.170Z,-8.20
2018-03-01T01:49:11.523Z,-8.22
2018-03-01T01:51:39.925Z,-8.19
2018-03-01T01:54:08.308Z,-8.23
2018-03-01T01:56:36.678Z,-8.20
2018-03-01T01:59:05.062Z,-8.12
2018-03-01T02:01:33.386Z,-8.15
2018-03-01T02:04:01.732Z,-8.16
2018-03-01T02:06:30.058Z,-8.09
2018-03-01T02:08:58.405Z,-8.11
2018-03-01T02:11:26.730Z,-8.18
2018-03-01T02:13:55.078Z,-8.20
2018-03-01T02:16:23.407Z,-8.19
2018-03-01T02:18:51.754Z,-8.16
2018-03-01T02:21:20.246Z,-8.14
2018-03-01T02:23:48.628Z,-8.10
2018-03-01T02:26:16.954Z,-8.07
2018-03-01T02:28:45.300Z,-8.15
2018-03-01T02:31:13.624Z,-8.10
2018-03-01T02:33:41.966Z,-8.10
2018-03-01T02:36:10.310Z,-8.05
2018-03-01T02:38:38.664Z,-8.04
2018-03-01T02:41:07.062Z,-8.00
2018-03-01T02:43:35.443Z,-7.98
2018-03-01T02:46:03.786Z,-7.94
2018-03-01T02:48:32.139Z,-7.99
2018-03-01T02:51:00.565Z,-7.96
2018-03-01T02:53:28.895Z,-8.00
2018-03-01T02:55:57.242Z,-8.04
2018-03-01T02:58:25.595Z,-7.99
2018-03-01T03:00:53.930Z,-8.00
2018-03-01T03:03:22.251Z,-8.00
2018-03-01T03:05:50.594Z,-8.05
2018-03-01T03:08:19.007Z,-7.95
2018-03-01T03:10:47.382Z,-8.00
2018-03-01T03:13:15.754Z,-7.98
2018-03-01T03:15:44.137Z,-7.92
2018-03-01T03:18:12.514Z,-7.89
2018-03-01T03:20:40.895Z,-7.92
2018-03-01T03:23:09.273Z,-7.92
2018-03-01T03:25:37.654Z,-8.00
2018-03-01T03:28:06.038Z,-7.93
2018-03-01T03:30:34.374Z,-7.95
2018-03-01T03:33:02.697Z,-7.98
2018-03-01T03:35:31.058Z,-8.03
2018-03-01T03:37:59.377Z,-8.08
2018-03-01T03:40:27.810Z,-8.10
2018-03-01T03:42:56.186Z,-8.07
2018-03-01T03:45:24.567Z,-8.08
2018-03-01T03:47:52.894Z,-8.13
2018-03-01T03:50:21.334Z,-8.18
2018-03-01T03:52:49.697Z,-8.12
2018-03-01T03:55:18.042Z,-8.16
2018-03-01T03:57:46.459Z,-8.14
2018-03-01T04:00:14.796Z,-8.13
2018-03-01T04:02:43.206Z,-8.14
2018-03-01T04:05:11.557Z,-8.21
2018-03-01T04:07:39.887Z,-8.20
2018-03-01T04:10:08.338Z,-8.22
2018-03-01T04:12:36.667Z,-8.24
2018-03-01T04:15:05.014Z,-8.23
2018-03-01T04:17:33.333Z,-8.20
2018-03-01T04:20:01.678Z,-8.26
2018-03-01T04:22:30.002Z,-8.21
2018-03-01T04:24:58.350Z,-8.17
2018-03-01T04:27:26.674Z,-8.22
2018-03-01T04:29:55.018Z,-8.23
2018-03-01T04:32:23.341Z,-8.27
2018-03-01T04:34:51.686Z,-8.30
2018-03-01T04:37:20.078Z,-8.25
2018-03-01T04:39:48.422Z,-8.26
2018-03-01T04:42:16.841Z,-8.30
2018-03-01T04:44:45.166Z,-8.23
2018-03-01T04:47:13.587Z,-8.33
2018-03-01T04:49:41.910Z,-8.28
2018-03-01T04:52:10.346Z,-8.29
2018-03-01T04:54:38.722Z,-8.31
2018-03-01T04:57:07.066Z,-8.37
2018-03-01T04:59:35.385Z,-8.40
2018-03-01T05:02:03.730Z,-8.33
2018-03-01T05:04:32.061Z,-8.34
2018-03-01T05:07:00.406Z,-8.39
2018-03-01T05:09:28.730Z,-8.40
2018-03-01T05:11:57.162Z,-8.37
2018-03-01T05:14:25.533Z,-8.40
2018-03-01T05:16:53.878Z,-8.34
2018-03-01T05:19:22.285Z,-8.38
2018-03-01T05:21:50.633Z,-8.47
2018-03-01T05:24:18.961Z,-8.42
2018-03-01T05:26:47.310Z,-8.49
2018-03-01T05:29:15.640Z,-8.56
2018-03-01T05:31:44.074Z,-8.49
2018-03-01T05:34:12.403Z,-8.50
2018-03-01T05:36:40.829Z,-8.50
2018-03-01T05:39:09.154Z,-8.55
2018-03-01T05:41:37.506Z,-8.43
2018-03-01T05:44:05.834Z,-8.49
2018-03-01T05:46:34.190Z,-8.57
2018-03-01T05:49:02.526Z,-8.49
2018-03-01T05:51:30.881Z,-8.49
2018-03-01T05:53:59.198Z,-8.51
2018-03-01T05:56:27.582Z,-8.54
2018-03-01T05:58:55.910Z,-8.52
2018-03-01T06:01:24.835Z,-8.59
2018-03-01T06:03:53.240Z,-8.52
2018-03-01T06:06:21.671Z,-8.59
2018-03-01T06:08:50.046Z,-8.58
2018-03-01T06:11:18.422Z,-8.54
2018-03-01T06:13:46.850Z,-8.56
2018-03-01T06:16:15.189Z,-8.58
2018-03-01T06:18:43.582Z,-8.60
2018-03-01T06:21:11.934Z,-8.49
2018-03-01T06:23:40.262Z,-8.49
2018-03-01T06:26:09.574Z,-8.51
2018-03-01T06:28:37.982Z,-8.54
2018-03-01T06:31:06.360Z,-8.57
2018-03-01T06:33:34.738Z,-8.59
2018-03-01T06:36:03.114Z,-8.60
2018-03-01T06:38:31.450Z,-8.61
2018-03-01T06:40:59.874Z,-8.58
2018-03-01T06:43:28.250Z,-8.55
2018-03-01T06:45:57.088Z,-8.56
2018-03-01T06:48:27.206Z,-8.51
2018-03-01T06:50:55.584Z,-8.60
2018-03-01T06:53:24.110Z,-8.58
2018-03-01T06:55:52.447Z,-8.55
2018-03-01T06:58:20.807Z,-8.50
2018-03-01T07:00:49.249Z,-8.55
2018-03-01T07:03:17.595Z,-8.57
2018-03-01T07:05:45.934Z,-8.61
2018-03-01T07:08:14.283Z,-8.52
2018-03-01T07:10:42.615Z,-8.52
2018-03-01T07:13:11.030Z,-8.39
2018-03-01T07:15:39.362Z,-8.40
2018-03-01T07:18:07.718Z,-8.44
2018-03-01T07:20:36.042Z,-8.45
2018-03-01T07:23:04.437Z,-8.39
2018-03-01T07:25:32.770Z,-8.39
2018-03-01T07:28:01.191Z,-8.38
2018-03-01T07:30:29.522Z,-8.27
2018-03-01T07:32:57.879Z,-8.25
2018-03-01T07:35:26.198Z,-8.30
2018-03-01T07:37:54.556Z,-8.24
2018-03-01T07:40:22.882Z,-8.24
2018-03-01T07:42:51.248Z,-8.15
2018-03-01T07:45:19.582Z,-8.19
2018-03-01T07:47:47.925Z,-8.03
2018-03-01T07:50:16.262Z,-8.06
2018-03-01T07:52:44.655Z,-7.94
2018-03-01T07:55:13.032Z,-7.99
2018-03-01T07:57:41.394Z,-7.87
2018-03-01T08:00:09.786Z,-7.87
2018-03-01T08:02:38.139Z,-7.78
2018-03-01T08:05:07.067Z,-7.85
2018-03-01T08:07:35.410Z,-7.77
2018-03-01T08:10:03.745Z,-7.77
2018-03-01T08:12:32.090Z,-7.74
2018-03-01T08:15:00.424Z,-7.74
2018-03-01T08:17:28.773Z,-7.71
2018-03-01T08:19:57.093Z,-7.68
2018-03-01T08:22:25.577Z,-7.66
2018-03-01T08:24:54.617Z,-7.61
2018-03-01T08:27:22.973Z,-7.53
2018-03-01T08:29:51.394Z,-7.51
2018-03-01T08:32:20.017Z,-7.42
2018-03-01T08:34:48.658Z,-7.44
2018-03-01T08:37:18.797Z,-7.33
2018-03-01T08:39:48.279Z,-7.37
2018-03-01T08:42:17.681Z,-7.44
2018-03-01T08:44:46.054Z,-7.44
2018-03-01T08:47:14.407Z,-7.32
2018-03-01T08:49:42.750Z,-7.26
2018-03-01T08:52:11.134Z,-7.23
2018-03-01T08:54:39.509Z,-7.30
2018-03-01T08:57:07.878Z,-7.23
2018-03-01T08:59:36.213Z,-7.24
2018-03-01T09:02:04.677Z,-7.19
2018-03-01T09:04:33.153Z,-7.15
2018-03-01T09:07:01.551Z,-7.11
2018-03-01T09:09:30.389Z,-7.06
2018-03-01T09:11:58.769Z,-7.03
2018-03-01T09:14:27.134Z,-6.96
2018-03-01T09:16:55.523Z,-6.95
2018-03-01T09:19:23.941Z,-6.92
2018-03-01T09:21:52.228Z,-6.82
2018-03-01T09:24:20.569Z,-6.74
2018-03-01T09:26:48.894Z,-6.73
2018-03-01T09:29:17.310Z,-6.68
2018-03-01T09:31:45.685Z,-6.71
2018-03-01T09:34:14.038Z,-6.73
2018-03-01T09:36:42.371Z,-6.57
2018-03-01T09:39:10.754Z,-6.64
2018-03-01T09:41:39.258Z,-6.60
2018-03-01T09:44:07.741Z,-6.48
2018-03-01T09:46:49.825Z,-6.43
2018-03-01T09:49:19.026Z,-6.42
2018-03-01T09:51:47.374Z,-6.40
2018-03-01T09:54:15.889Z,-6.53
2018-03-01T09:56:45.534Z,-6.42
2018-03-01T09:59:15.719Z,-6.42
2018-03-01T10:01:44.290Z,-6.36
2018-03-01T10:04:14.417Z,-6.34
2018-03-01T10:06:43.077Z,-6.21
2018-03-01T10:09:11.888Z,-6.12
2018-03-01T10:11:40.314Z,-6.02
2018-03-01T10:14:08.714Z,-6.00
2018-03-01T10:16:37.038Z,-5.88
2018-03-01T10:19:05.434Z,-5.81
2018-03-01T10:21:33.758Z,-5.84
2018-03-01T10:24:02.205Z,-5.84
2018-03-01T10:26:30.637Z,-5.68
2018-03-01T10:28:59.080Z,-5.54
2018-03-01T10:31:27.491Z,-5.57
2018-03-01T10:33:55.924Z,-5.47
2018-03-01T10:36:24.246Z,-5.49
2018-03-01T10:38:52.594Z,-5.50
2018-03-01T10:41:20.932Z,-5.44
2018-03-01T10:43:49.335Z,-5.39
2018-03-01T10:46:18.726Z,-5.36
2018-03-01T10:48:47.112Z,-5.39
2018-03-01T10:51:15.486Z,-5.33
2018-03-01T10:53:43.842Z,-5.40
2018-03-01T10:56:13.119Z,-5.44
2018-03-01T10:58:41.647Z,-5.36
2018-03-01T11:01:15.549Z,-5.49
2018-03-01T11:03:44.093Z,-5.36
2018-03-01T11:06:12.488Z,-5.32
2018-03-01T11:08:41.206Z,-5.25
2018-03-01T11:11:09.530Z,-5.14
2018-03-01T11:13:37.882Z,-4.97
2018-03-01T11:16:06.226Z,-4.91
2018-03-01T11:18:34.586Z,-4.95
2018-03-01T11:21:02.915Z,-4.96
2018-03-01T11:23:31.242Z,-4.87
2018-03-01T11:25:59.642Z,-4.88
2018-03-01T11:28:27.974Z,-4.75
2018-03-01T11:30:56.353Z,-4.60
2018-03-01T11:33:24.719Z,-4.47
2018-03-01T11:35:53.094Z,-4.62
2018-03-01T11:38:21.394Z,-4.62
2018-03-01T11:40:49.753Z,-4.45
2018-03-01T11:43:18.182Z,-4.62
2018-03-01T11:45:46.547Z,-4.63
2018-03-01T11:48:14.863Z,-4.69
2018-03-01T11:50:43.259Z,-4.62
2018-03-01T11:53:11.578Z,-4.45
2018-03-01T11:55:39.958Z,-4.50
2018-03-01T11:58:08.289Z,-4.40
2018-03-01T12:00:36.638Z,-4.31
2018-03-01T12:03:04.981Z,-4.39
2018-03-01T12:05:33.326Z,-4.29
2018-03-01T12:08:01.662Z,-4.22
2018-03-01T12:10:30.039Z,-4.11
2018-03-01T12:12:58.358Z,-4.19
2018-03-01T12:15:26.745Z,-4.32
2018-03-01T12:17:56.078Z,-4.18
2018-03-01T12:20:24.509Z,-4.12
2018-03-01T12:22:52.861Z,-4.25
2018-03-01T12:25:21.218Z,-4.12
2018-03-01T12:27:49.546Z,-4.18
2018-03-01T12:30:17.893Z,-4.17
2018-03-01T12:32:46.218Z,-4.01
2018-03-01T12:35:14.571Z,-4.07
2018-03-01T12:37:43.018Z,-4.07
2018-03-01T12:40:11.470Z,-4.08
2018-03-01T12:42:39.942Z,-4.07
2018-03-01T12:45:08.286Z,-4.05
2018-03-01T12:47:36.710Z,-3.92
2018-03-01T12:50:05.348Z,-3.86
2018-03-01T12:52:33.822Z,-3.91
2018-03-01T12:55:02.199Z,-3.93
2018-03-01T12:57:30.535Z,-3.94
2018-03-01T12:59:58.882Z,-3.92
2018-03-01T13:02:27.210Z,-3.84
2018-03-01T13:04:57.473Z,-3.87
2018-03-01T13:07:25.813Z,-3.78
2018-03-01T13:09:54.152Z,-3.73
2018-03-01T13:12:22.473Z,-3.76
2018-03-01T13:14:50.826Z,-3.65
2018-03-01T13:17:19.955Z,-3.70
2018-03-01T13:19:48.314Z,-3.64
2018-03-01T13:22:16.858Z,-3.73
2018-03-01T13:24:45.203Z,-3.65
2018-03-01T13:27:13.718Z,-3.55
2018-03-01T13:29:42.087Z,-3.48
2018-03-01T13:32:10.785Z,-3.45
2018-03-01T13:34:43.310Z,-3.47
2018-03-01T13:37:11.658Z,-3.54
2018-03-01T13:39:52.014Z,-3.55
2018-03-01T13:45:20.619Z,-3.62
2018-03-01T13:47:48.954Z,-3.60
2018-03-01T13:50:17.302Z,-3.52
2018-03-01T13:52:45.635Z,-3.46
2018-03-01T13:55:13.982Z,-3.39
2018-03-01T13:57:42.311Z,-3.31
2018-03-01T14:00:10.658Z,-3.32
2018-03-01T14:02:38.985Z,-3.29
2018-03-01T14:05:07.366Z,-3.23
2018-03-01T14:07:37.558Z,-3.24
2018-03-01T14:10:06.480Z,-3.14
2018-03-01T14:12:38.975Z,-3.06
2018-03-01T14:15:10.702Z,-3.21
2018-03-01T14:20:47.853Z,-3.13
2018-03-01T14:23:18.665Z,-3.10
2018-03-01T14:25:48.445Z,-3.13
2018-03-01T14:28:22.505Z,-3.14
2018-03-01T14:30:50.976Z,-3.22
2018-03-01T14:33:19.297Z,-3.23
2018-03-01T14:35:47.759Z,-3.18
2018-03-01T14:38:16.074Z,-3.19
2018-03-01T14:40:44.474Z,-3.27
2018-03-01T14:43:12.878Z,-3.24
2018-03-01T14:45:41.252Z,-3.18
2018-03-01T14:48:10.574Z,-3.20
2018-03-01T14:50:38.934Z,-3.10
2018-03-01T14:53:07.331Z,-2.99
2018-03-01T14:55:36.069Z,-2.97
2018-03-01T14:58:04.684Z,-3.01
2018-03-01T15:00:33.315Z,-3.08
2018-03-01T15:03:01.745Z,-3.16
2018-03-01T15:05:30.197Z,-3.16
2018-03-01T15:07:58.573Z,-3.13
2018-03-01T15:10:26.985Z,-3.17
2018-03-01T15:12:55.322Z,-3.19
2018-03-01T15:15:23.916Z,-3.27
2018-03-01T15:17:52.293Z,-3.27
2018-03-01T15:20:20.634Z,-3.20
2018-03-01T15:22:49.008Z,-3.31
2018-03-01T15:25:17.395Z,-3.49
2018-03-01T15:27:45.769Z,-3.41
2018-03-01T15:30:14.144Z,-3.50
2018-03-01T15:32:42.491Z,-3.52
2018-03-01T15:35:10.919Z,-3.59
2018-03-01T15:37:39.274Z,-3.64
2018-03-01T15:40:07.625Z,-3.54
2018-03-01T15:42:35.970Z,-3.58
2018-03-01T15:45:04.339Z,-3.66
2018-03-01T15:47:32.716Z,-3.70
2018-03-01T15:50:01.105Z,-3.76
2018-03-01T15:52:29.461Z,-3.77
2018-03-01T15:54:57.810Z,-3.78
2018-03-01T15:57:26.193Z,-3.76
2018-03-01T15:59:54.563Z,-3.84
2018-03-01T16:02:22.914Z,-3.89
2018-03-01T16:04:51.270Z,-3.84
2018-03-01T16:07:19.756Z,-3.91
2018-03-01T16:09:48.125Z,-3.96
2018-03-01T16:12:16.495Z,-3.95
2018-03-01T16:14:44.851Z,-4.02
2018-03-01T16:17:13.337Z,-4.05
2018-03-01T16:19:41.758Z,-4.01
2018-03-01T16:22:10.178Z,-4.08
2018-03-01T16:24:38.533Z,-4.10
2018-03-01T16:27:06.951Z,-4.14
2018-03-01T16:29:35.325Z,-4.21
2018-03-01T16:32:03.683Z,-4.25
2018-03-01T16:34:32.017Z,-4.26
2018-03-01T16:37:00.406Z,-4.33
2018-03-01T16:39:28.739Z,-4.36
2018-03-01T16:41:57.095Z,-4.37
2018-03-01T16:44:25.427Z,-4.41
2018-03-01T16:46:54.021Z,-4.44
2018-03-01T16:49:22.354Z,-4.44
2018-03-01T16:51:50.717Z,-4.45
2018-03-01T16:54:19.181Z,-4.52
2018-03-01T16:56:48.483Z,-4.49
2018-03-01T16:59:16.798Z,-4.53
2018-03-01T17:01:45.125Z,-4.57
2018-03-01T17:04:13.663Z,-4.61
2018-03-01T17:06:42.002Z,-4.66
2018-03-01T17:09:10.354Z,-4.63
2018-03-01T17:11:43.334Z,-4.72
2018-03-01T17:14:11.683Z,-4.74
2018-03-01T17:16:40.019Z,-4.77
2018-03-01T17:19:08.374Z,-4.82
2018-03-01T17:21:36.698Z,-4.81
2018-03-01T17:24:05.048Z,-4.82
2018-03-01T17:26:34.361Z,-4.80
2018-03-01T17:29:02.733Z,-4.84
2018-03-01T17:31:31.071Z,-4.78
2018-03-01T17:33:59.419Z,-4.83
2018-03-01T17:36:28.638Z,-4.89
2018-03-01T17:38:56.994Z,-4.86
2018-03-01T17:41:25.456Z,-4.92
2018-03-01T17:43:53.850Z,-4.90
2018-03-01T17:46:22.169Z,-4.95
2018-03-01T17:48:50.525Z,-4.98
2018-03-01T17:51:18.846Z,-4.95
2018-03-01T17:53:47.311Z,-5.04
2018-03-01T17:56:15.719Z,-5.09
2018-03-01T17:58:44.070Z,-5.08
2018-03-01T18:01:12.536Z,-5.05
2018-03-01T18:03:40.921Z,-5.06
2018-03-01T18:06:09.351Z,-5.05
2018-03-01T18:08:37.838Z,-5.06
2018-03-01T18:11:06.164Z,-5.10
2018-03-01T18:13:34.576Z,-5.15
2018-03-01T18:16:03.079Z,-5.20
2018-03-01T18:18:31.421Z,-5.14
2018-03-01T18:20:59.748Z,-5.16
2018-03-01T18:23:28.201Z,-5.23
2018-03-01T18:25:57.259Z,-5.16
2018-03-01T18:28:26.645Z,-5.21
2018-03-01T18:30:54.997Z,-5.26
2018-03-01T18:33:23.480Z,-5.28
2018-03-01T18:35:51.799Z,-5.27
2018-03-01T18:38:20.214Z,-5.27
2018-03-01T18:40:48.663Z,-5.32
2018-03-01T18:43:17.026Z,-5.28
2018-03-01T18:45:45.359Z,-5.25
2018-03-01T18:48:13.743Z,-5.28
2018-03-01T18:50:42.127Z,-5.29
2018-03-01T18:53:10.466Z,-5.26
2018-03-01T18:55:38.822Z,-5.27
2018-03-01T18:58:07.235Z,-5.30
2018-03-01T19:00:35.596Z,-5.25
2018-03-01T19:03:03.946Z,-5.30
2018-03-01T19:05:32.303Z,-5.28
2018-03-01T19:08:01.284Z,-5.34
2018-03-01T19:10:29.727Z,-5.26
2018-03-01T19:12:58.077Z,-5.39
2018-03-01T19:15:26.926Z,-5.40
2018-03-01T19:17:55.274Z,-5.37
2018-03-01T19:20:23.730Z,-5.31
2018-03-01T19:22:52.067Z,-5.39
2018-03-01T19:25:20.487Z,-5.49
2018-03-01T19:27:48.945Z,-5.48
2018-03-01T19:30:17.334Z,-5.53
2018-03-01T19:32:45.657Z,-5.49
2018-03-01T19:35:14.011Z,-5.58
2018-03-01T19:37:42.397Z,-5.45
2018-03-01T19:40:10.741Z,-5.43
2018-03-01T19:42:39.086Z,-5.52
2018-03-01T19:45:07.514Z,-5.56
2018-03-01T19:47:35.849Z,-5.61
2018-03-01T19:50:04.193Z,-5.65
2018-03-01T19:52:32.522Z,-5.57
2018-03-01T19:55:00.906Z,-5.68
2018-03-01T19:57:29.279Z,-5.62
2018-03-01T19:59:57.641Z,-5.68
2018-03-01T20:02:26.034Z,-5.66
2018-03-01T20:04:54.387Z,-5.68
2018-03-01T20:07:22.718Z,-5.70
2018-03-01T20:09:52.358Z,-5.65
2018-03-01T20:12:20.723Z,-5.66
2018-03-01T20:14:49.155Z,-5.65
2018-03-01T20:17:17.482Z,-5.69
2018-03-01T20:19:45.846Z,-5.63
2018-03-01T20:22:14.209Z,-5.64
2018-03-01T20:24:42.555Z,-5.71
2018-03-01T20:27:10.934Z,-5.82
2018-03-01T20:29:39.348Z,-5.80
2018-03-01T20:32:07.724Z,-5.75
2018-03-01T20:34:36.169Z,-5.76
2018-03-01T20:37:04.501Z,-5.77
2018-03-01T20:39:32.860Z,-5.79
2018-03-01T20:42:01.295Z,-5.79
2018-03-01T20:44:29.618Z,-5.74
2018-03-01T20:46:57.954Z,-5.77
2018-03-01T20:49:26.324Z,-5.77
2018-03-01T20:51:54.703Z,-5.70
2018-03-01T20:54:23.094Z,-5.75
2018-03-01T20:56:51.538Z,-5.69
2018-03-01T20:59:20.222Z,-5.77
2018-03-01T21:01:49.566Z,-5.71
2018-03-01T21:04:17.923Z,-5.88
2018-03-01T21:06:47.207Z,-5.75
2018-03-01T21:09:15.592Z,-5.83
2018-03-01T21:11:43.920Z,-5.85
2018-03-01T21:14:12.278Z,-5.77
2018-03-01T21:16:40.810Z,-5.79
2018-03-01T21:19:09.133Z,-5.87
2018-03-01T21:21:37.483Z,-5.87
2018-03-01T21:24:05.827Z,-5.93
2018-03-01T21:26:34.280Z,-5.92
2018-03-01T21:29:02.737Z,-5.93
2018-03-01T21:31:32.583Z,-6.02
2018-03-01T21:34:01.063Z,-5.96
2018-03-01T21:36:29.601Z,-5.99
2018-03-01T21:38:58.021Z,-6.08
2018-03-01T21:41:26.454Z,-6.05
2018-03-01T21:43:54.826Z,-6.13
2018-03-01T21:46:23.170Z,-6.10
2018-03-01T21:48:51.505Z,-6.18
2018-03-01T21:51:19.962Z,-6.17
2018-03-01T21:53:48.285Z,-6.23
2018-03-01T21:56:16.711Z,-6.20
2018-03-01T21:58:46.003Z,-6.21
2018-03-01T22:01:14.623Z,-6.22
2018-03-01T22:03:43.086Z,-6.32
2018-03-01T22:06:11.428Z,-6.19
2018-03-01T22:08:39.838Z,-6.29
2018-03-01T22:11:08.213Z,-6.29
2018-03-01T22:13:36.639Z,-6.30
2018-03-01T22:16:05.058Z,-6.29
2018-03-01T22:18:33.490Z,-6.35
2018-03-01T22:21:01.843Z,-6.33
2018-03-01T22:23:30.168Z,-6.38
2018-03-01T22:25:58.542Z,-6.28
2018-03-01T22:28:26.874Z,-6.33
2018-03-01T22:30:55.323Z,-6.43
2018-03-01T22:33:23.626Z,-6.50
2018-03-01T22:35:51.974Z,-6.52
2018-03-01T22:38:21.331Z,-6.37
2018-03-01T22:40:49.803Z,-6.43
2018-03-01T22:43:18.442Z,-6.45
2018-03-01T22:45:46.777Z,-6.52
2018-03-01T22:48:15.201Z,-6.42
2018-03-01T22:50:43.581Z,-6.60
2018-03-01T22:53:11.902Z,-6.48
2018-03-01T22:55:40.254Z,-6.47
2018-03-01T22:58:08.606Z,-6.61
2018-03-01T23:00:48.853Z,-6.66
2018-03-01T23:03:17.178Z,-6.75
2018-03-01T23:05:45.618Z,-6.71
2018-03-01T23:08:14.701Z,-6.75
2018-03-01T23:10:43.126Z,-6.77
2018-03-01T23:13:11.450Z,-6.71
2018-03-01T23:15:39.796Z,-6.80
2018-03-01T23:18:08.124Z,-6.90
2018-03-01T23:20:36.474Z,-6.86
2018-03-01T23:23:04.798Z,-6.92
2018-03-01T23:25:33.249Z,-6.95
2018-03-01T23:28:01.622Z,-6.94
2018-03-01T23:30:29.966Z,-7.00
2018-03-01T23:32:58.291Z,-7.00
2018-03-01T23:35:26.637Z,-7.04
2018-03-01T23:37:54.966Z,-7.14
2018-03-01T23:40:23.294Z,-7.09
2018-03-01T23:42:51.682Z,-7.15
2018-03-01T23:45:20.053Z,-7.11
2018-03-01T23:47:48.405Z,-7.05
2018-03-01T23:50:16.726Z,-7.06
2018-03-01T23:52:45.089Z,-7.09
2018-03-01T23:55:13.415Z,-7.11
2018-03-01T23:57:41.842Z,-7.07
